createdAt,value
2023-02-19T00:01:17.944Z,9.43
2023-02-19T00:03:49.780Z,9.40
2023-02-19T00:06:16.640Z,9.46
2023-02-19T00:08:43.457Z,9.40
2023-02-19T00:11:18.204Z,9.44
2023-02-19T00:13:47.504Z,9.31
2023-02-19T00:16:16.500Z,9.40
2023-02-19T00:18:44.191Z,9.41
2023-02-19T00:21:11.627Z,9.42
2023-02-19T00:23:38.701Z,9.37
2023-02-19T00:26:17.660Z,9.39
2023-02-19T00:28:47.862Z,9.40
2023-02-19T00:31:18.947Z,9.42
2023-02-19T00:33:46.857Z,9.43
2023-02-19T00:36:14.299Z,9.47
2023-02-19T00:38:42.410Z,9.44
2023-02-19T00:41:22.152Z,9.39
2023-02-19T00:43:48.994Z,9.36
2023-02-19T00:46:22.128Z,9.44
2023-02-19T00:48:49.378Z,9.38
2023-02-19T00:51:16.451Z,9.39
2023-02-19T00:53:43.511Z,9.41
2023-02-19T00:56:11.289Z,9.33
2023-02-19T00:58:38.764Z,9.34
2023-02-19T01:01:07.270Z,9.25
2023-02-19T01:03:35.652Z,9.32
2023-02-19T01:06:04.317Z,9.35
2023-02-19T01:08:32.206Z,9.36
2023-02-19T01:11:02.168Z,9.34
2023-02-19T01:13:29.691Z,9.29
2023-02-19T01:16:07.302Z,9.28
2023-02-19T01:18:34.063Z,9.35
2023-02-19T01:21:05.760Z,9.45
2023-02-19T01:23:32.855Z,9.41
2023-02-19T01:25:59.585Z,9.41
2023-02-19T01:28:26.338Z,9.43
2023-02-19T01:30:53.251Z,9.38
2023-02-19T01:33:20.003Z,9.50
2023-02-19T01:35:46.710Z,9.49
2023-02-19T01:38:13.693Z,9.43
2023-02-19T01:40:40.418Z,9.48
2023-02-19T01:43:16.099Z,9.44
2023-02-19T01:45:44.783Z,9.45
2023-02-19T01:48:29.188Z,9.42
2023-02-19T01:51:17.091Z,9.67
2023-02-19T01:53:48.100Z,9.76
2023-02-19T01:56:16.712Z,9.58
2023-02-19T01:58:44.107Z,9.63
2023-02-19T02:01:11.677Z,9.73
2023-02-19T02:03:40.890Z,9.49
2023-02-19T02:06:22.439Z,9.45
2023-02-19T02:09:10.519Z,9.43
2023-02-19T02:11:38.902Z,9.39
2023-02-19T02:14:05.755Z,9.35
2023-02-19T02:16:41.735Z,9.38
2023-02-19T02:19:29.666Z,9.41
2023-02-19T02:22:13.957Z,9.44
2023-02-19T02:25:17.878Z,9.39
2023-02-19T02:27:47.529Z,9.40
2023-02-19T02:30:18.149Z,9.38
2023-02-19T02:33:08.228Z,9.40
2023-02-19T02:35:58.599Z,9.39
2023-02-19T02:38:29.351Z,9.29
2023-02-19T02:40:57.046Z,9.32
2023-02-19T02:43:24.890Z,9.27
2023-02-19T02:45:52.136Z,9.34
2023-02-19T02:48:26.575Z,9.29
2023-02-19T02:51:04.632Z,9.29
2023-02-19T02:54:02.178Z,9.27
2023-02-19T02:56:29.384Z,9.21
2023-02-19T02:59:01.072Z,9.21
2023-02-19T03:01:52.084Z,9.22
2023-02-19T03:04:26.712Z,9.19
2023-02-19T03:06:54.752Z,9.26
2023-02-19T03:09:31.962Z,9.26
2023-02-19T03:12:21.758Z,9.33
2023-02-19T03:15:10.742Z,9.29
2023-02-19T03:18:19.401Z,9.26
2023-02-19T03:20:50.306Z,9.26
2023-02-19T03:23:18.522Z,9.29
2023-02-19T03:26:03.505Z,9.25
2023-02-19T03:28:59.599Z,9.19
2023-02-19T03:31:29.220Z,9.24
2023-02-19T03:34:02.203Z,9.24
2023-02-19T03:36:38.317Z,9.19
2023-02-19T03:39:07.535Z,9.31
2023-02-19T03:42:04.891Z,9.32
2023-02-19T03:44:35.566Z,9.33
2023-02-19T03:47:19.081Z,9.29
2023-02-19T03:49:55.963Z,9.42
2023-02-19T03:53:03.549Z,9.49
2023-02-19T03:55:39.457Z,9.48
2023-02-19T03:58:24.875Z,9.36
2023-02-19T04:00:57.416Z,9.30
2023-02-19T04:03:26.818Z,9.42
2023-02-19T04:06:00.876Z,9.35
2023-02-19T04:08:28.160Z,9.43
2023-02-19T04:11:00.689Z,9.29
2023-02-19T04:13:34.685Z,9.35
2023-02-19T04:16:07.126Z,9.44
2023-02-19T04:18:37.233Z,9.39
2023-02-19T04:21:04.770Z,9.42
2023-02-19T04:23:35.837Z,9.44
2023-02-19T04:26:03.361Z,9.44
2023-02-19T04:28:30.318Z,9.40
2023-02-19T04:30:57.062Z,9.49
2023-02-19T04:33:23.881Z,9.43
2023-02-19T04:35:50.604Z,9.50
2023-02-19T04:38:17.289Z,9.45
2023-02-19T04:40:44.132Z,9.50
2023-02-19T04:43:11.337Z,9.48
2023-02-19T04:45:38.791Z,9.48
2023-02-19T04:48:06.027Z,9.42
2023-02-19T04:50:32.701Z,9.32
2023-02-19T04:52:59.425Z,9.27
2023-02-19T04:55:26.331Z,9.25
2023-02-19T04:57:53.201Z,9.17
2023-02-19T05:00:20.059Z,9.15
2023-02-19T05:02:46.913Z,9.15
2023-02-19T05:05:13.740Z,9.28
2023-02-19T05:07:40.558Z,9.27
2023-02-19T05:10:07.702Z,9.21
2023-02-19T05:12:34.716Z,9.15
2023-02-19T05:15:01.553Z,9.20
2023-02-19T05:17:28.491Z,9.19
2023-02-19T05:19:55.214Z,9.22
2023-02-19T05:22:21.888Z,9.34
2023-02-19T05:24:48.961Z,9.25
2023-02-19T05:27:15.667Z,9.22
2023-02-19T05:29:42.399Z,9.16
2023-02-19T05:32:09.368Z,9.08
2023-02-19T05:34:36.079Z,9.09
2023-02-19T05:37:02.845Z,9.04
2023-02-19T05:39:29.726Z,9.05
2023-02-19T05:41:56.515Z,9.08
2023-02-19T05:44:23.325Z,9.04
2023-02-19T05:46:50.402Z,9.06
2023-02-19T05:49:17.365Z,8.94
2023-02-19T05:51:44.375Z,8.97
2023-02-19T05:54:11.209Z,8.95
2023-02-19T05:56:40.105Z,8.95
2023-02-19T05:59:21.426Z,8.99
2023-02-19T06:01:49.941Z,8.99
2023-02-19T06:04:19.134Z,9.18
2023-02-19T06:06:47.196Z,9.04
2023-02-19T06:09:14.086Z,9.10
2023-02-19T06:11:41.288Z,9.03
2023-02-19T06:14:08.176Z,9.07
2023-02-19T06:16:35.241Z,9.08
2023-02-19T06:19:03.426Z,9.05
2023-02-19T06:21:30.180Z,9.09
2023-02-19T06:23:56.989Z,9.11
2023-02-19T06:26:25.335Z,9.14
2023-02-19T06:28:54.073Z,9.08
2023-02-19T06:31:22.376Z,9.08
2023-02-19T06:33:50.732Z,9.09
2023-02-19T06:36:19.655Z,9.14
2023-02-19T06:38:46.447Z,9.14
2023-02-19T06:41:13.885Z,9.02
2023-02-19T06:43:41.091Z,9.04
2023-02-19T06:46:08.593Z,8.98
2023-02-19T06:48:35.853Z,9.00
2023-02-19T06:51:03.310Z,9.01
2023-02-19T06:53:30.390Z,9.01
2023-02-19T06:55:58.146Z,8.97
2023-02-19T06:58:25.245Z,8.94
2023-02-19T07:01:13.998Z,8.90
2023-02-19T07:03:43.635Z,8.92
2023-02-19T07:06:10.423Z,8.89
2023-02-19T07:08:37.074Z,8.94
2023-02-19T07:11:04.224Z,8.85
2023-02-19T07:13:31.055Z,8.89
2023-02-19T07:16:08.005Z,8.86
2023-02-19T07:18:35.050Z,8.80
2023-02-19T07:21:10.977Z,8.68
2023-02-19T07:23:38.376Z,8.75
2023-02-19T07:26:05.559Z,8.71
2023-02-19T07:28:32.285Z,8.81
2023-02-19T07:31:03.414Z,8.74
2023-02-19T07:33:30.860Z,8.77
2023-02-19T07:35:57.694Z,8.74
2023-02-19T07:38:25.239Z,8.74
2023-02-19T07:40:52.776Z,8.80
2023-02-19T07:43:19.638Z,8.89
2023-02-19T07:45:46.428Z,8.94
2023-02-19T07:48:13.424Z,8.91
2023-02-19T07:50:40.207Z,8.98
2023-02-19T07:53:06.790Z,9.08
2023-02-19T07:55:34.035Z,8.91
2023-02-19T07:58:01.107Z,8.89
2023-02-19T08:00:28.031Z,8.89
2023-02-19T08:03:00.770Z,8.87
2023-02-19T08:05:30.663Z,8.92
2023-02-19T08:07:58.837Z,8.87
2023-02-19T08:10:44.897Z,8.96
2023-02-19T08:13:19.606Z,8.99
2023-02-19T08:15:46.993Z,8.89
2023-02-19T08:18:14.724Z,8.97
2023-02-19T08:20:41.377Z,9.00
2023-02-19T08:23:08.991Z,8.88
2023-02-19T08:25:36.137Z,8.97
2023-02-19T08:28:02.982Z,8.99
2023-02-19T08:30:30.995Z,9.00
2023-02-19T08:33:01.312Z,9.01
2023-02-19T08:35:28.967Z,8.98
2023-02-19T08:37:57.441Z,9.05
2023-02-19T08:40:25.301Z,9.14
2023-02-19T08:42:52.176Z,9.19
2023-02-19T08:45:19.243Z,8.99
2023-02-19T08:47:46.705Z,9.07
2023-02-19T08:50:13.450Z,9.05
2023-02-19T08:52:42.582Z,9.28
2023-02-19T08:55:09.408Z,9.27
2023-02-19T08:57:37.732Z,9.40
2023-02-19T09:00:06.540Z,9.13
2023-02-19T09:02:33.538Z,9.22
2023-02-19T09:05:00.289Z,9.28
2023-02-19T09:07:27.648Z,9.24
2023-02-19T09:09:54.644Z,9.39
2023-02-19T09:12:21.466Z,9.39
2023-02-19T09:14:48.372Z,9.41
2023-02-19T09:17:15.007Z,9.50
2023-02-19T09:19:41.951Z,9.54
2023-02-19T09:22:09.283Z,9.64
2023-02-19T09:24:36.172Z,9.57
2023-02-19T09:27:02.835Z,9.67
2023-02-19T09:29:29.771Z,9.75
2023-02-19T09:32:00.463Z,9.78
2023-02-19T09:34:28.403Z,9.87
2023-02-19T09:36:55.664Z,9.79
2023-02-19T09:39:22.505Z,9.81
2023-02-19T09:41:52.284Z,9.76
2023-02-19T09:44:34.446Z,9.61
2023-02-19T09:47:02.222Z,9.47
2023-02-19T09:49:33.854Z,9.44
2023-02-19T09:52:12.440Z,9.17
2023-02-19T09:54:40.020Z,9.19
2023-02-19T09:57:14.706Z,9.23
2023-02-19T09:59:47.969Z,8.87
2023-02-19T10:02:18.762Z,8.81
2023-02-19T10:04:46.976Z,8.83
2023-02-19T10:07:26.114Z,8.93
2023-02-19T10:09:53.855Z,8.81
2023-02-19T10:12:26.016Z,8.84
2023-02-19T10:14:56.497Z,8.73
2023-02-19T10:17:25.658Z,8.66
2023-02-19T10:19:52.985Z,8.72
2023-02-19T10:22:20.519Z,8.84
2023-02-19T10:24:51.835Z,8.76
2023-02-19T10:27:18.977Z,8.83
2023-02-19T10:29:47.412Z,8.88
2023-02-19T10:32:14.273Z,8.93
2023-02-19T10:34:40.963Z,8.85
2023-02-19T10:37:12.458Z,8.75
2023-02-19T10:39:43.257Z,8.75
2023-02-19T10:42:23.329Z,8.90
2023-02-19T10:44:54.359Z,8.71
2023-02-19T10:47:23.529Z,8.91
2023-02-19T10:49:51.379Z,8.98
2023-02-19T10:52:22.579Z,8.95
2023-02-19T10:54:56.711Z,9.08
2023-02-19T10:57:30.662Z,8.91
2023-02-19T11:00:19.786Z,8.73
2023-02-19T11:02:47.105Z,8.57
2023-02-19T11:05:23.465Z,8.65
2023-02-19T11:07:53.791Z,8.46
2023-02-19T11:10:29.036Z,8.54
2023-02-19T11:12:59.633Z,8.40
2023-02-19T11:15:33.625Z,8.13
2023-02-19T11:18:12.961Z,7.87
2023-02-19T11:20:48.918Z,7.92
2023-02-19T11:23:20.089Z,8.06
2023-02-19T11:25:51.276Z,8.18
2023-02-19T11:28:37.972Z,8.27
2023-02-19T11:31:23.189Z,8.26
2023-02-19T11:33:59.475Z,8.39
2023-02-19T11:36:30.900Z,8.34
2023-02-19T11:39:02.052Z,7.90
2023-02-19T11:52:10.096Z,7.54
2023-02-19T12:10:17.894Z,7.56
2023-02-19T12:13:06.595Z,7.69
2023-02-19T12:16:01.379Z,7.65
2023-02-19T12:18:40.355Z,7.39
2023-02-19T12:21:22.501Z,7.60
2023-02-19T12:24:01.568Z,7.38
2023-02-19T12:26:29.560Z,7.44
2023-02-19T12:29:28.341Z,7.22
2023-02-19T12:32:23.497Z,7.14
2023-02-19T12:35:12.696Z,7.19
2023-02-19T12:37:58.226Z,7.08
2023-02-19T12:40:43.426Z,7.16
2023-02-19T12:43:20.642Z,7.25
2023-02-19T12:46:13.910Z,7.32
2023-02-19T12:48:48.356Z,7.42
2023-02-19T12:51:23.511Z,7.43
2023-02-19T12:53:56.331Z,7.51
2023-02-19T12:56:37.135Z,7.32
2023-02-19T13:29:29.938Z,7.81
2023-02-19T14:15:44.599Z,8.08
2023-02-19T14:18:42.746Z,8.08
2023-02-19T14:21:28.055Z,8.27
2023-02-19T14:23:58.400Z,8.35
2023-02-19T14:26:26.689Z,8.26
2023-02-19T14:28:53.996Z,8.23
2023-02-19T14:31:29.277Z,8.45
2023-02-19T14:34:00.525Z,8.46
2023-02-19T14:36:30.074Z,8.38
2023-02-19T14:38:59.206Z,8.33
2023-02-19T14:41:27.234Z,8.37
2023-02-19T14:43:56.950Z,8.47
2023-02-19T14:46:32.183Z,8.45
2023-02-19T14:49:05.553Z,8.55
2023-02-19T14:51:40.813Z,8.60
2023-02-19T14:54:15.787Z,8.55
2023-02-19T14:56:45.407Z,8.59
2023-02-19T14:59:11.967Z,8.65
2023-02-19T15:01:39.077Z,8.55
2023-02-19T15:04:06.521Z,8.57
2023-02-19T15:06:35.180Z,8.51
2023-02-19T15:09:07.100Z,8.42
2023-02-19T15:11:35.318Z,8.33
2023-02-19T15:14:04.549Z,8.16
2023-02-19T15:16:32.712Z,8.07
2023-02-19T15:19:00.219Z,7.99
2023-02-19T15:21:32.279Z,7.98
2023-02-19T15:24:04.332Z,7.91
2023-02-19T15:26:42.299Z,7.91
2023-02-19T15:29:17.065Z,7.87
2023-02-19T15:31:52.322Z,7.75
2023-02-19T15:34:20.516Z,7.91
2023-02-19T15:36:48.256Z,7.83
2023-02-19T15:39:26.208Z,7.77
2023-02-19T15:42:14.336Z,7.69
2023-02-19T15:45:18.766Z,7.62
2023-02-19T15:47:53.912Z,7.67
2023-02-19T15:50:31.952Z,7.71
2023-02-19T15:52:59.601Z,7.62
2023-02-19T15:55:51.977Z,7.65
2023-02-19T15:58:56.412Z,7.55
2023-02-19T16:01:31.118Z,7.62
2023-02-19T16:03:58.499Z,7.70
2023-02-19T16:06:26.517Z,7.69
2023-02-19T16:09:02.381Z,7.71
2023-02-19T16:11:53.201Z,7.68
2023-02-19T16:14:30.663Z,7.63
2023-02-19T16:17:11.449Z,7.54
2023-02-19T16:19:47.996Z,7.65
2023-02-19T16:22:18.588Z,7.47
2023-02-19T16:24:47.561Z,7.71
2023-02-19T16:27:26.097Z,7.77
2023-02-19T16:29:53.260Z,7.77
2023-02-19T16:32:20.090Z,7.81
2023-02-19T16:34:48.440Z,7.73
2023-02-19T16:37:35.134Z,7.69
2023-02-19T16:40:11.234Z,7.71
2023-02-19T16:42:50.656Z,7.62
2023-02-19T16:45:18.012Z,7.64
2023-02-19T16:47:48.205Z,7.53
2023-02-19T16:50:47.670Z,7.54
2023-02-19T16:53:24.801Z,7.57
2023-02-19T16:55:52.129Z,7.57
2023-02-19T16:58:18.827Z,7.40
2023-02-19T17:00:45.587Z,7.47
2023-02-19T17:03:15.360Z,7.53
2023-02-19T17:05:42.533Z,7.56
2023-02-19T17:08:46.318Z,7.59
2023-02-19T17:11:15.475Z,7.47
2023-02-19T17:13:42.931Z,7.46
2023-02-19T17:16:17.407Z,7.62
2023-02-19T17:18:44.195Z,7.50
2023-02-19T17:21:15.956Z,7.52
2023-02-19T17:23:42.759Z,7.40
2023-02-19T17:26:21.690Z,7.56
2023-02-19T17:28:48.883Z,7.51
2023-02-19T17:31:16.258Z,7.59
2023-02-19T17:33:43.711Z,7.42
2023-02-19T17:36:38.135Z,7.29
2023-02-19T17:39:07.147Z,7.24
2023-02-19T17:41:33.801Z,7.21
2023-02-19T17:44:00.550Z,7.08
2023-02-19T17:46:27.752Z,7.00
2023-02-19T17:48:55.206Z,6.89
2023-02-19T17:51:22.388Z,6.82
2023-02-19T17:53:49.353Z,7.04
2023-02-19T17:56:20.746Z,6.89
2023-02-19T17:58:47.766Z,6.90
2023-02-19T18:01:15.131Z,6.87
2023-02-19T18:03:42.910Z,6.87
2023-02-19T18:06:09.734Z,6.78
2023-02-19T18:08:36.893Z,6.89
2023-02-19T18:11:03.899Z,6.79
2023-02-19T18:13:30.689Z,6.67
2023-02-19T18:15:57.526Z,6.74
2023-02-19T18:18:24.154Z,6.76
2023-02-19T18:20:50.956Z,6.76
2023-02-19T18:23:17.705Z,6.83
2023-02-19T18:26:19.036Z,6.65
2023-02-19T18:28:45.854Z,6.54
2023-02-19T18:31:12.730Z,6.45
2023-02-19T18:33:39.696Z,6.41
2023-02-19T18:36:10.565Z,6.33
2023-02-19T18:38:37.423Z,6.31
2023-02-19T18:41:04.268Z,6.34
2023-02-19T18:43:31.211Z,6.32
2023-02-19T18:45:58.027Z,6.27
2023-02-19T18:48:24.858Z,6.25
2023-02-19T18:50:51.663Z,6.29
2023-02-19T18:53:18.448Z,6.34
2023-02-19T18:55:45.279Z,6.28
2023-02-19T18:58:12.051Z,6.26
2023-02-19T19:00:38.736Z,6.10
2023-02-19T19:03:06.510Z,6.22
2023-02-19T19:05:33.450Z,6.29
2023-02-19T19:08:01.847Z,6.34
2023-02-19T19:10:29.923Z,6.24
2023-02-19T19:12:57.594Z,6.29
2023-02-19T19:15:24.747Z,6.21
2023-02-19T19:17:52.295Z,6.22
2023-02-19T19:20:20.527Z,6.41
2023-02-19T19:22:51.711Z,6.25
2023-02-19T19:25:19.499Z,6.12
2023-02-19T19:27:46.887Z,6.11
2023-02-19T19:30:14.367Z,6.44
2023-02-19T19:32:41.965Z,6.08
2023-02-19T19:35:09.556Z,5.95
2023-02-19T19:37:36.298Z,5.94
2023-02-19T19:40:04.061Z,5.84
2023-02-19T19:42:30.834Z,5.87
2023-02-19T19:44:58.127Z,5.83
2023-02-19T19:47:25.406Z,5.77
2023-02-19T19:49:52.453Z,5.85
2023-02-19T19:52:19.191Z,5.81
2023-02-19T19:54:45.830Z,5.80
2023-02-19T19:57:13.138Z,5.81
2023-02-19T19:59:39.844Z,5.80
2023-02-19T20:02:07.729Z,5.89
2023-02-19T20:04:34.448Z,5.84
2023-02-19T20:07:02.362Z,5.84
2023-02-19T20:09:29.564Z,5.79
2023-02-19T20:11:56.594Z,5.86
2023-02-19T20:14:24.770Z,5.90
2023-02-19T20:16:52.618Z,5.86
2023-02-19T20:19:20.231Z,5.76
2023-02-19T20:21:50.839Z,5.77
2023-02-19T20:24:24.362Z,5.77
2023-02-19T20:26:53.396Z,5.76
2023-02-19T20:29:20.378Z,5.63
2023-02-19T20:31:50.883Z,5.69
2023-02-19T20:34:18.542Z,5.63
2023-02-19T20:36:46.806Z,5.61
2023-02-19T20:39:16.420Z,5.61
2023-02-19T20:41:48.837Z,5.68
2023-02-19T20:44:19.454Z,5.72
2023-02-19T20:46:48.940Z,5.70
2023-02-19T20:49:17.598Z,5.70
2023-02-19T20:51:50.232Z,5.68
2023-02-19T20:54:20.780Z,5.71
2023-02-19T20:56:54.177Z,5.73
2023-02-19T20:59:24.337Z,5.79
2023-02-19T21:01:51.864Z,5.78
2023-02-19T21:04:19.118Z,5.80
2023-02-19T21:06:46.100Z,5.81
2023-02-19T21:09:13.029Z,5.80
2023-02-19T21:11:39.813Z,5.81
2023-02-19T21:14:06.775Z,5.80
2023-02-19T21:16:33.766Z,5.77
2023-02-19T21:19:00.909Z,5.80
2023-02-19T21:21:30.028Z,5.81
2023-02-19T21:23:58.136Z,5.87
2023-02-19T21:26:25.699Z,5.86
2023-02-19T21:28:52.672Z,5.83
2023-02-19T21:31:21.664Z,5.86
2023-02-19T21:33:49.375Z,5.84
2023-02-19T21:36:18.491Z,5.87
2023-02-19T21:38:45.256Z,5.87
2023-02-19T21:41:12.000Z,5.82
2023-02-19T21:43:39.939Z,5.90
2023-02-19T21:46:06.711Z,5.89
2023-02-19T21:48:33.706Z,5.94
2023-02-19T21:51:00.911Z,6.00
2023-02-19T21:53:27.779Z,6.01
2023-02-19T21:55:58.808Z,6.02
2023-02-19T21:58:26.405Z,6.07
2023-02-19T22:00:58.731Z,5.98
2023-02-19T22:03:26.667Z,6.01
2023-02-19T22:05:57.770Z,6.00
2023-02-19T22:08:26.512Z,6.03
2023-02-19T22:11:04.932Z,5.89
2023-02-19T22:13:32.272Z,5.94
2023-02-19T22:16:00.399Z,5.95
2023-02-19T22:18:27.583Z,5.94
2023-02-19T22:20:54.288Z,6.00
2023-02-19T22:23:21.062Z,5.98
2023-02-19T22:25:47.665Z,5.96
2023-02-19T22:28:14.370Z,5.95
2023-02-19T22:30:42.819Z,6.00
2023-02-19T22:33:09.923Z,6.00
2023-02-19T22:35:36.776Z,5.98
2023-02-19T22:38:03.536Z,6.12
2023-02-19T22:40:30.233Z,6.04
2023-02-19T22:42:56.930Z,6.09
2023-02-19T22:45:25.137Z,6.12
2023-02-19T22:47:55.538Z,6.10
2023-02-19T22:50:22.873Z,6.25
2023-02-19T22:52:50.257Z,6.35
2023-02-19T22:55:17.311Z,6.53
2023-02-19T22:57:43.949Z,6.54
2023-02-19T23:00:17.463Z,6.41
2023-02-19T23:02:44.224Z,6.43
2023-02-19T23:05:10.794Z,6.43
2023-02-19T23:07:37.512Z,6.59
2023-02-19T23:10:04.371Z,6.60
2023-02-19T23:12:31.052Z,6.60
2023-02-19T23:14:57.774Z,6.61
2023-02-19T23:17:24.438Z,6.63
2023-02-19T23:19:51.077Z,6.65
2023-02-19T23:22:17.944Z,6.71
2023-02-19T23:24:44.719Z,6.71
2023-02-19T23:27:11.333Z,6.74
2023-02-19T23:29:38.119Z,6.75
2023-02-19T23:32:04.941Z,6.83
2023-02-19T23:34:31.937Z,6.82
2023-02-19T23:37:02.362Z,6.84
2023-02-19T23:39:29.220Z,6.83
2023-02-19T23:41:57.317Z,6.94
2023-02-19T23:44:25.269Z,6.90
2023-02-19T23:46:52.462Z,6.98
2023-02-19T23:49:19.389Z,7.03
2023-02-19T23:51:46.418Z,7.16
2023-02-19T23:54:13.131Z,7.21
2023-02-19T23:56:39.875Z,7.19
2023-02-19T23:59:06.638Z,7.23
